Time;durP1;ratioP1;P1;durP2;ratioP2;P2;SDS_P1;SDS_P2;PMS_P1;PMS_P2;Temp;Humidity;BMP_temperature;BMP_pressure;BME280_temperature;BME280_humidity;BME280_pressure;Samples;Min_cycle;Max_cycle;Signal;HPM_P1;HPM_P2
2023/10/10 06:16:52;;;;;;;38.63;27.83;;;20.90;99.90;;;;;;5586381;23;20079;-76
2023/10/10 06:19:21;;;;;;;38.45;28.65;;;21.30;99.90;;;;;;4943868;29;20421;-76
2023/10/10 06:21:47;;;;;;;32.05;28.92;;;21.50;99.90;;;;;;4940959;29;20031;-77
2023/10/10 06:24:13;;;;;;;32.55;28.75;;;21.70;99.90;;;;;;4937816;29;20031;-77
2023/10/10 06:26:46;;;;;;;33.10;29.73;;;22.20;99.90;;;;;;4934503;29;20024;-75
2023/10/10 06:29:15;;;;;;;34.08;30.33;;;22.60;99.90;;;;;;4919092;29;20032;-75
2023/10/10 06:31:45;;;;;;;35.60;29.58;;;22.90;99.90;;;;;;4918137;29;20022;-76
2023/10/10 06:34:22;;;;;;;44.33;30.10;;;23.10;99.90;;;;;;4900963;29;20024;-75
2023/10/10 06:36:50;;;;;;;42.63;30.95;;;23.40;99.90;;;;;;4918402;29;20032;-75
2023/10/10 06:41:51;;;;;;;38.65;29.48;;;24.40;99.90;;;;;;4918485;29;20062;-75
2023/10/10 06:44:31;;;;;;;31.83;28.35;;;24.50;99.90;;;;;;4917987;29;20040;-76
2023/10/10 06:47:12;;;;;;;35.45;28.30;;;24.70;99.90;;;;;;4918236;29;20461;-76
2023/10/10 06:49:43;;;;;;;31.38;28.50;;;24.90;99.90;;;;;;4918431;29;20390;-77
2023/10/10 06:52:18;;;;;;;33.47;29.85;;;24.90;99.90;;;;;;4918461;29;20031;-75
2023/10/10 06:54:53;;;;;;;36.58;29.10;;;25.10;99.90;;;;;;4917987;29;20063;-77
2023/10/10 06:57:37;;;;;;;34.67;28.90;;;25.20;99.90;;;;;;4917703;29;20026;-76
2023/10/10 07:02:49;;;;;;;33.83;30.20;;;25.60;99.90;;;;;;4918347;29;20283;-78
2023/10/10 07:05:26;;;;;;;31.52;28.52;;;25.70;99.90;;;;;;4916653;29;20077;-81
2023/10/10 07:07:59;;;;;;;32.35;28.90;;;26.00;99.90;;;;;;4897886;29;20490;-81
2023/10/10 07:10:47;;;;;;;37.75;31.23;;;26.40;99.90;;;;;;4897882;29;20502;-80
2023/10/10 07:13:14;;;;;;;34.40;30.95;;;27.10;99.90;;;;;;4897697;29;20040;-80
2023/10/10 07:15:51;;;;;;;35.00;31.35;;;27.30;99.90;;;;;;4911739;29;20115;-79
2023/10/10 07:18:26;;;;;;;34.00;30.95;;;27.00;99.90;;;;;;4913489;29;20516;-80
2023/10/10 07:21:06;;;;;;;35.80;31.70;;;27.00;99.90;;;;;;4916565;29;20490;-80
2023/10/10 07:23:39;;;;;;;34.58;31.17;;;27.10;99.90;;;;;;4917362;29;20032;-80
2023/10/10 07:26:19;;;;;;;35.75;32.13;;;27.30;99.90;;;;;;4916488;29;20164;-80
2023/10/10 07:28:52;;;;;;;38.83;33.63;;;27.60;99.90;;;;;;4916574;29;20489;-80
2023/10/10 07:31:21;;;;;;;39.13;34.10;;;27.60;99.90;;;;;;4918303;29;20505;-81
2023/10/10 07:34:15;;;;;;;36.78;32.33;;;27.60;99.90;;;;;;4916414;29;20366;-81
2023/10/10 07:36:36;;;;;;;37.22;33.53;;;27.90;99.90;;;;;;4916719;29;20036;-80
2023/10/10 07:41:48;;;;;;;36.33;32.67;;;28.60;99.90;;;;;;4917242;29;20060;-81
2023/10/10 07:44:22;;;;;;;40.22;32.88;;;28.70;99.90;;;;;;4918128;29;20033;-80
2023/10/10 07:48:31;;;;;;;37.15;33.30;;;28.50;99.90;;;;;;4919404;29;20032;-81
2023/10/10 07:49:40;;;;;;;36.85;33.22;;;28.30;99.90;;;;;;4907821;29;20072;-80
2023/10/10 07:52:15;;;;;;;37.55;32.20;;;28.50;99.90;;;;;;4901140;29;20024;-77
2023/10/10 07:54:45;;;;;;;41.47;33.30;;;28.70;99.90;;;;;;4917155;29;20494;-80
2023/10/10 07:57:22;;;;;;;37.30;33.22;;;28.80;99.90;;;;;;4917854;29;20028;-78
2023/10/10 08:00:01;;;;;;;37.58;33.42;;;28.70;99.90;;;;;;4919077;29;20381;-78
2023/10/10 08:02:38;;;;;;;36.72;32.53;;;28.90;99.90;;;;;;4917816;29;20044;-78
2023/10/10 08:05:11;;;;;;;37.30;32.97;;;28.80;99.90;;;;;;4917310;29;20040;-78
2023/10/10 08:07:39;;;;;;;37.03;33.03;;;28.70;99.90;;;;;;4917641;29;20032;-78
2023/10/10 08:10:14;;;;;;;42.45;34.30;;;28.90;99.90;;;;;;4903860;29;20497;-78
2023/10/10 08:12:43;;;;;;;36.42;33.10;;;28.80;99.90;;;;;;4899085;29;20036;-78
2023/10/10 08:15:19;;;;;;;35.92;32.67;;;28.80;99.90;;;;;;4898562;29;20035;-78
2023/10/10 08:17:55;;;;;;;37.30;33.40;;;28.70;99.90;;;;;;4908696;29;20493;-78
2023/10/10 08:21:08;;;;;;;37.45;33.90;;;28.50;99.90;;;;;;4916817;29;20024;-78
2023/10/10 08:23:25;;;;;;;36.58;32.72;;;28.60;99.90;;;;;;4915960;29;20047;-78
2023/10/10 08:25:52;;;;;;;36.28;32.53;;;28.70;99.90;;;;;;4916958;29;20061;-78
2023/10/10 08:28:22;;;;;;;36.20;32.67;;;28.70;99.90;;;;;;4916314;29;20022;-78
2023/10/10 08:30:53;;;;;;;36.00;32.45;;;28.70;99.90;;;;;;4915522;29;20028;-78
2023/10/10 08:33:20;;;;;;;35.80;31.85;;;28.80;99.90;;;;;;4916931;29;20473;-78
2023/10/10 08:35:47;;;;;;;36.30;32.97;;;29.00;99.90;;;;;;4916578;29;20031;-78
2023/10/10 08:38:13;;;;;;;37.22;33.38;;;29.20;99.90;;;;;;4916676;29;20037;-78
2023/10/10 08:40:42;;;;;;;36.95;33.08;;;29.30;99.90;;;;;;4916074;29;20024;-78
2023/10/10 08:43:12;;;;;;;44.15;32.75;;;29.30;99.90;;;;;;4917272;29;20028;-78
2023/10/10 08:45:49;;;;;;;38.22;32.78;;;28.80;99.90;;;;;;4916858;29;20410;-77
2023/10/10 08:48:26;;;;;;;36.67;33.13;;;28.60;99.90;;;;;;4915858;29;20040;-78
2023/10/10 08:50:55;;;;;;;36.90;33.35;;;28.50;99.90;;;;;;4917302;29;20088;-78
2023/10/10 08:53:24;;;;;;;36.95;33.28;;;28.60;99.90;;;;;;4916936;29;20024;-78
2023/10/10 08:55:56;;;;;;;38.60;34.03;;;28.70;99.90;;;;;;4916380;29;20076;-78
2023/10/10 08:58:24;;;;;;;37.05;33.22;;;28.60;99.90;;;;;;4914689;29;20035;-78
2023/10/10 09:00:53;;;;;;;37.22;33.47;;;28.40;99.90;;;;;;4916801;29;20027;-78
2023/10/10 09:03:22;;;;;;;38.13;34.20;;;28.40;99.90;;;;;;4916503;29;20485;-78
2023/10/10 09:05:49;;;;;;;36.85;33.22;;;28.40;99.90;;;;;;4916830;29;20068;-78
2023/10/10 09:08:26;;;;;;;40.30;33.40;;;28.40;99.90;;;;;;4916695;29;20032;-78
2023/10/10 09:11:01;;;;;;;38.17;34.28;;;28.70;99.90;;;;;;4919449;29;20032;-78
2023/10/10 09:13:31;;;;;;;38.65;34.78;;;29.00;99.90;;;;;;4920592;29;20084;-78
2023/10/10 09:16:00;;;;;;;40.33;36.42;;;29.10;99.90;;;;;;4919272;29;20035;-79
2023/10/10 09:18:32;;;;;;;40.03;36.25;;;29.00;99.90;;;;;;4920399;29;20052;-78
2023/10/10 09:21:19;;;;;;;40.17;36.15;;;29.00;99.90;;;;;;4920470;29;20035;-78
2023/10/10 09:24:07;;;;;;;40.08;36.33;;;28.90;99.90;;;;;;4903420;29;20525;-78
2023/10/10 09:26:36;;;;;;;39.42;35.95;;;28.90;99.90;;;;;;4918673;29;20435;-78
2023/10/10 09:29:15;;;;;;;39.13;35.53;;;29.00;99.90;;;;;;4920301;29;20082;-78
2023/10/10 09:31:45;;;;;;;40.15;36.35;;;29.10;99.90;;;;;;4920106;29;20442;-78
2023/10/10 09:34:18;;;;;;;40.95;37.05;;;29.20;99.90;;;;;;4903394;29;20035;-78
2023/10/10 09:36:51;;;;;;;40.38;36.50;;;29.20;99.90;;;;;;4919491;29;20040;-78
2023/10/10 09:39:55;;;;;;;42.15;37.67;;;29.20;99.90;;;;;;4920135;29;20111;-78
2023/10/10 09:45:26;;;;;;;41.90;37.17;;;29.30;99.90;;;;;;4911693;29;20059;-79
2023/10/10 09:48:04;;;;;;;40.20;36.40;;;29.30;99.90;;;;;;4917961;29;20501;-79
2023/10/10 09:50:37;;;;;;;40.67;36.80;;;29.30;99.90;;;;;;4919547;29;20028;-79
2023/10/10 09:53:19;;;;;;;41.75;35.72;;;29.30;99.90;;;;;;4918665;29;20043;-79
2023/10/10 09:55:47;;;;;;;39.90;36.33;;;29.30;99.90;;;;;;4919181;29;20371;-78
2023/10/10 09:58:16;;;;;;;40.20;36.40;;;29.20;99.90;;;;;;4919177;29;20533;-79
2023/10/10 10:00:46;;;;;;;41.00;36.88;;;29.30;99.90;;;;;;4918313;29;20370;-79
2023/10/10 10:09:19;;;;;;;40.92;37.17;;;29.50;99.90;;;;;;4919038;29;20038;-79
2023/10/10 10:12:08;;;;;;;39.83;36.03;;;29.60;99.90;;;;;;4916579;29;20043;-79
2023/10/10 10:15:12;;;;;;;38.55;34.72;;;29.50;99.90;;;;;;4919380;29;20437;-79
2023/10/10 10:23:55;;;;;;;39.42;35.58;;;29.60;99.90;;;;;;4918032;29;20169;-79
2023/10/10 10:26:33;;;;;;;39.33;35.33;;;29.60;99.90;;;;;;4918953;29;20405;-78
2023/10/10 10:29:15;;;;;;;39.47;35.78;;;29.40;99.90;;;;;;4919345;29;20046;-78
2023/10/10 10:31:51;;;;;;;40.30;36.20;;;29.40;99.90;;;;;;4919802;29;20028;-79
2023/10/10 10:34:32;;;;;;;40.33;36.60;;;29.60;99.90;;;;;;4921787;29;20032;-79
2023/10/10 10:37:23;;;;;;;39.10;35.78;;;29.50;99.90;;;;;;4903951;29;20028;-79
2023/10/10 10:42:50;;;;;;;39.80;36.08;;;29.40;99.90;;;;;;4923158;29;20024;-78
2023/10/10 10:45:38;;;;;;;39.55;36.13;;;29.40;99.90;;;;;;4920328;29;20047;-79
2023/10/10 10:48:34;;;;;;;38.90;35.70;;;29.40;99.90;;;;;;4918610;29;20032;-79
2023/10/10 10:51:06;;;;;;;39.67;36.05;;;29.30;99.90;;;;;;4918686;29;20143;-79
2023/10/10 10:53:50;;;;;;;40.60;36.80;;;29.30;99.90;;;;;;4918129;29;20096;-79
2023/10/10 11:01:34;;;;;;;39.95;36.20;;;29.40;99.90;;;;;;4920917;29;20048;-80
2023/10/10 11:04:05;;;;;;;39.00;35.45;;;29.60;99.90;;;;;;4921733;29;20032;-79
2023/10/10 11:06:50;;;;;;;39.88;35.80;;;29.70;99.90;;;;;;4919394;29;20068;-79
2023/10/10 11:09:32;;;;;;;39.88;35.58;;;29.80;99.90;;;;;;4902432;29;20386;-78
2023/10/10 11:12:02;;;;;;;39.67;36.03;;;29.90;99.90;;;;;;4900688;29;20033;-79
2023/10/10 11:14:36;;;;;;;39.13;35.63;;;30.00;99.90;;;;;;4900066;29;20080;-78
2023/10/10 11:17:17;;;;;;;40.70;36.40;;;30.00;99.90;;;;;;4904594;29;20075;-79
2023/10/10 11:19:53;;;;;;;39.20;35.95;;;30.00;99.90;;;;;;4918156;29;20083;-78
2023/10/10 11:22:38;;;;;;;40.13;36.22;;;29.80;99.90;;;;;;4916880;29;20501;-79
2023/10/10 11:25:06;;;;;;;39.78;36.55;;;29.90;99.90;;;;;;4918531;29;20127;-78
2023/10/10 11:27:48;;;;;;;41.63;37.53;;;29.90;99.90;;;;;;4917910;29;20099;-78
2023/10/10 11:30:24;;;;;;;40.28;36.85;;;29.90;99.90;;;;;;4918200;29;20443;-78
2023/10/10 11:33:16;;;;;;;40.90;37.15;;;29.80;99.90;;;;;;4916959;29;20040;-79
2023/10/10 11:35:39;;;;;;;40.45;37.08;;;30.00;99.90;;;;;;4917727;29;20072;-79
2023/10/10 11:38:16;;;;;;;39.45;36.00;;;30.00;99.90;;;;;;4917355;29;20028;-78
2023/10/10 11:40:52;;;;;;;41.38;37.65;;;30.00;99.90;;;;;;4916368;29;20036;-78
2023/10/10 11:43:22;;;;;;;40.30;36.72;;;30.10;99.90;;;;;;4916685;29;20032;-78
2023/10/10 11:45:53;;;;;;;41.72;38.08;;;30.10;99.90;;;;;;4917533;29;20044;-78
2023/10/10 11:48:23;;;;;;;41.53;37.85;;;30.20;99.90;;;;;;4916665;29;20032;-78
2023/10/10 11:50:56;;;;;;;40.70;37.40;;;30.20;99.90;;;;;;4918054;29;20063;-79
2023/10/10 11:53:23;;;;;;;39.85;36.35;;;30.30;99.90;;;;;;4917721;29;20064;-78
2023/10/10 11:55:54;;;;;;;38.15;34.83;;;30.40;99.90;;;;;;4917719;29;20073;-79
2023/10/10 11:58:35;;;;;;;38.33;35.10;;;30.50;99.90;;;;;;4918045;29;20032;-79
2023/10/10 12:01:08;;;;;;;40.35;36.30;;;30.60;99.90;;;;;;4916518;29;20024;-79
2023/10/10 12:06:26;;;;;;;41.35;37.47;;;30.40;99.90;;;;;;4917417;29;20067;-78
2023/10/10 12:08:55;;;;;;;40.13;36.58;;;30.30;99.90;;;;;;4917759;29;20029;-79
2023/10/10 12:11:22;;;;;;;39.90;36.28;;;30.40;99.90;;;;;;4918204;29;20020;-79
2023/10/10 12:13:51;;;;;;;39.80;36.45;;;30.20;99.90;;;;;;4913829;29;20024;-78
2023/10/10 12:16:25;;;;;;;40.65;37.10;;;30.40;99.90;;;;;;4917575;29;20441;-79
2023/10/10 12:18:54;;;;;;;40.33;36.78;;;30.60;99.90;;;;;;4910542;29;20055;-78
2023/10/10 12:21:25;;;;;;;38.20;34.90;;;30.60;99.90;;;;;;4916448;29;20094;-78
2023/10/10 12:23:57;;;;;;;40.08;36.72;;;30.70;99.90;;;;;;4917437;29;20032;-78
2023/10/10 12:26:26;;;;;;;39.75;36.08;;;30.80;99.90;;;;;;4917845;29;20064;-80
2023/10/10 13:03:59;;;;;;;38.63;34.88;;;29.10;99.90;;;;;;5514381;23;20054;-79
2023/10/10 13:06:35;;;;;;;39.08;35.42;;;28.90;99.90;;;;;;4924326;29;20040;-81
2023/10/10 13:09:22;;;;;;;;;;;28.90;99.90;;;;;;4953720;29;20035;-80
2023/10/10 13:11:50;;;;;;;38.10;34.90;;;28.70;99.90;;;;;;4957935;29;19918;-81
2023/10/10 13:21:54;;;;;;;37.33;33.97;;;28.30;99.90;;;;;;4850269;29;20042;-82
2023/10/10 13:24:35;;;;;;;38.35;34.33;;;27.90;99.90;;;;;;4878788;29;20623;-80
2023/10/10 13:27:27;;;;;;;37.50;33.88;;;28.00;99.90;;;;;;4841928;29;20057;-81
2023/10/10 13:29:53;;;;;;;37.50;33.63;;;27.80;99.90;;;;;;4842949;29;20037;-81
2023/10/10 13:32:39;;;;;;;36.75;33.28;;;27.80;99.90;;;;;;4841882;29;20041;-80
2023/10/10 13:35:08;;;;;;;36.40;32.97;;;27.70;99.90;;;;;;4842965;29;20066;-81
2023/10/10 13:37:41;;;;;;;37.90;34.30;;;27.60;99.90;;;;;;4842080;29;20034;-81
2023/10/10 13:40:20;;;;;;;35.72;32.63;;;27.60;99.90;;;;;;4843022;29;20038;-81
2023/10/10 13:42:49;;;;;;;35.45;32.40;;;27.50;99.90;;;;;;4842675;29;20448;-81
2023/10/10 13:45:21;;;;;;;35.05;31.85;;;27.50;99.90;;;;;;4849415;29;20093;-81
2023/10/10 13:47:48;;;;;;;34.80;31.30;;;27.50;99.90;;;;;;4861233;29;20061;-81
2023/10/10 13:50:40;;;;;;;34.78;31.60;;;27.60;99.90;;;;;;4876584;29;20029;-79
2023/10/10 13:53:13;;;;;;;36.70;32.92;;;27.40;99.90;;;;;;4861103;29;20529;-80
2023/10/10 13:55:42;;;;;;;;;;;27.40;99.90;;;;;;4878562;29;20037;-79
2023/10/10 13:58:11;;;;;;;35.33;31.55;;;27.30;99.90;;;;;;4895769;29;19907;-81
2023/10/10 14:00:41;;;;;;;34.88;31.77;;;27.20;99.90;;;;;;4917272;29;20103;-80
2023/10/10 14:03:08;;;;;;;35.03;31.77;;;27.20;99.90;;;;;;4918625;29;20385;-81
2023/10/10 14:05:41;;;;;;;34.15;31.33;;;27.20;99.90;;;;;;4918926;29;20043;-80
2023/10/10 14:08:17;;;;;;;34.77;31.60;;;27.20;99.90;;;;;;4919193;29;20033;-79
2023/10/10 14:10:50;;;;;;;35.97;32.35;;;27.20;99.90;;;;;;4919102;29;20111;-81
2023/10/10 14:13:19;;;;;;;36.47;32.88;;;27.30;99.90;;;;;;4918621;29;20104;-82
2023/10/10 14:15:56;;;;;;;35.92;32.92;;;27.30;99.90;;;;;;4933452;29;20504;-81
2023/10/10 14:18:23;;;;;;;36.20;32.97;;;27.30;99.90;;;;;;4919379;29;20036;-81
2023/10/10 14:20:50;;;;;;;37.42;34.08;;;27.30;99.90;;;;;;4918913;29;20418;-81
2023/10/10 14:23:23;;;;;;;38.50;33.22;;;27.20;99.90;;;;;;4901833;29;20124;-82
2023/10/10 14:25:51;;;;;;;36.13;33.00;;;27.20;99.90;;;;;;4917517;29;20406;-81
2023/10/10 14:28:19;;;;;;;36.38;33.00;;;27.30;99.90;;;;;;4933249;29;20494;-81
2023/10/10 14:30:49;;;;;;;37.00;33.58;;;27.30;99.90;;;;;;4933440;29;20040;-81
2023/10/10 14:33:22;;;;;;;35.78;32.65;;;27.20;99.90;;;;;;4933070;29;20032;-81
2023/10/10 14:35:49;;;;;;;35.80;32.47;;;27.10;99.90;;;;;;4933249;29;20490;-81
2023/10/10 14:38:16;;;;;;;34.70;31.83;;;27.10;99.90;;;;;;4901865;29;20032;-82
2023/10/10 14:40:43;;;;;;;35.88;32.47;;;27.00;99.90;;;;;;4918520;29;20034;-81
2023/10/10 14:43:11;;;;;;;36.45;32.90;;;27.10;99.90;;;;;;4917368;29;20075;-84
2023/10/10 14:45:44;;;;;;;36.45;32.60;;;27.10;99.90;;;;;;4901473;29;20040;-80
2023/10/10 14:48:18;;;;;;;39.03;32.63;;;27.10;99.90;;;;;;4933013;29;20046;-82
2023/10/10 14:50:53;;;;;;;36.47;33.15;;;27.10;99.90;;;;;;4918334;29;20036;-81
2023/10/10 14:53:27;;;;;;;35.58;32.80;;;27.00;99.90;;;;;;4932951;29;20040;-81
2023/10/10 14:55:53;;;;;;;35.45;32.40;;;26.90;99.90;;;;;;4932695;29;20485;-81
2023/10/10 14:58:25;;;;;;;36.70;33.33;;;26.90;99.90;;;;;;4917671;29;20079;-81
2023/10/10 15:01:02;;;;;;;36.33;32.60;;;26.80;99.90;;;;;;4927539;29;20063;-81
2023/10/10 15:03:40;;;;;;;36.33;33.35;;;26.90;99.90;;;;;;4951690;29;20047;-81
2023/10/10 15:06:10;;;;;;;35.92;33.08;;;26.80;99.90;;;;;;4939967;29;20047;-82
2023/10/10 15:08:43;;;;;;;37.95;33.90;;;26.70;99.90;;;;;;4901144;29;20134;-82
2023/10/10 15:11:12;;;;;;;37.13;33.40;;;26.60;99.90;;;;;;4916772;29;20032;-81
2023/10/10 15:13:46;;;;;;;35.38;32.45;;;26.50;99.90;;;;;;4901447;29;20032;-81
2023/10/10 15:16:21;;;;;;;34.97;31.88;;;26.50;99.90;;;;;;4916598;29;20043;-81
2023/10/10 15:18:56;;;;;;;36.05;32.95;;;26.50;99.90;;;;;;4932577;29;20493;-82
2023/10/10 15:21:32;;;;;;;38.25;34.53;;;26.40;99.90;;;;;;4917829;29;20036;-82
2023/10/10 15:24:03;;;;;;;38.00;34.00;;;26.50;99.90;;;;;;4916394;29;20398;-81
2023/10/10 15:26:30;;;;;;;39.30;33.85;;;26.40;99.90;;;;;;4932134;29;20036;-81
2023/10/10 15:28:57;;;;;;;36.90;33.50;;;26.30;99.90;;;;;;4900803;29;20481;-80
2023/10/10 15:31:31;;;;;;;36.10;32.65;;;26.20;99.90;;;;;;4900677;29;20040;-80
2023/10/10 15:34:00;;;;;;;35.85;32.78;;;26.20;99.90;;;;;;4900661;29;20032;-81
2023/10/10 15:36:31;;;;;;;36.10;32.67;;;26.10;99.90;;;;;;4910145;29;20024;-82
2023/10/10 15:39:03;;;;;;;35.13;32.05;;;26.00;99.90;;;;;;4916382;29;20501;-82
2023/10/10 15:41:34;;;;;;;35.60;31.98;;;25.80;99.90;;;;;;4916407;29;20028;-80
2023/10/10 15:44:04;;;;;;;35.63;31.83;;;25.70;99.90;;;;;;4916099;29;20039;-81
2023/10/10 15:46:33;;;;;;;35.25;31.73;;;25.70;99.90;;;;;;4906008;29;20028;-81
2023/10/10 15:49:12;;;;;;;34.40;31.30;;;25.60;99.90;;;;;;4916242;29;20035;-81
2023/10/10 15:51:41;;;;;;;34.03;31.10;;;25.50;99.90;;;;;;4916343;29;20029;-83
2023/10/10 15:54:11;;;;;;;35.08;31.52;;;25.50;99.90;;;;;;4916088;29;20048;-83
2023/10/10 15:56:46;;;;;;;34.90;31.15;;;25.40;99.90;;;;;;4916057;29;20036;-86
2023/10/10 15:59:16;;;;;;;35.85;32.05;;;25.30;99.90;;;;;;4931827;29;20028;-81
2023/10/10 16:01:46;;;;;;;33.55;30.27;;;25.30;99.90;;;;;;4900214;29;20028;-80
2023/10/10 16:04:19;;;;;;;37.92;30.55;;;25.10;99.90;;;;;;4915445;29;20454;-80
2023/10/10 16:06:50;;;;;;;35.88;30.48;;;25.00;99.90;;;;;;4917051;29;20028;-81
2023/10/10 16:09:20;;;;;;;32.60;29.08;;;24.90;99.90;;;;;;4917083;29;20490;-81
2023/10/10 16:11:55;;;;;;;33.28;29.58;;;24.80;99.90;;;;;;4900157;29;20036;-81
2023/10/10 16:14:28;;;;;;;38.80;29.73;;;24.80;99.90;;;;;;4915382;29;20031;-79
2023/10/10 16:16:55;;;;;;;31.63;28.38;;;24.70;99.90;;;;;;4916494;29;20063;-80
2023/10/10 16:19:30;;;;;;;39.72;29.98;;;24.60;99.90;;;;;;4931202;29;20032;-80
2023/10/10 16:22:01;;;;;;;33.72;28.42;;;24.50;99.90;;;;;;4916930;29;20611;-81
2023/10/10 16:24:31;;;;;;;33.03;28.95;;;24.50;99.90;;;;;;4915347;29;20036;-82
2023/10/10 16:27:03;;;;;;;36.55;28.85;;;24.40;99.90;;;;;;4931261;29;20059;-80
2023/10/10 16:29:36;;;;;;;37.58;31.05;;;24.30;99.90;;;;;;4931391;29;20051;-81
2023/10/10 16:32:15;;;;;;;44.30;31.90;;;24.20;99.90;;;;;;4931385;29;20032;-81
2023/10/10 16:34:44;;;;;;;42.78;32.13;;;24.10;99.90;;;;;;4931025;29;20035;-81
2023/10/10 16:37:16;;;;;;;45.90;32.63;;;24.00;99.90;;;;;;4916666;29;20537;-81
2023/10/10 16:39:44;;;;;;;56.55;33.20;;;24.00;99.90;;;;;;4916691;29;20040;-80
2023/10/10 16:42:18;;;;;;;53.70;33.50;;;24.00;99.90;;;;;;4915380;29;20039;-81
2023/10/10 16:44:48;;;;;;;53.95;34.08;;;23.90;99.90;;;;;;4915412;29;20071;-81
2023/10/10 16:47:19;;;;;;;46.38;33.53;;;23.90;99.90;;;;;;4912142;29;20060;-79
2023/10/10 16:49:49;;;;;;;52.03;33.20;;;23.80;99.90;;;;;;4897841;29;20092;-80
2023/10/10 16:52:19;;;;;;;44.75;32.33;;;23.70;99.90;;;;;;4912287;29;20029;-83
2023/10/10 16:54:50;;;;;;;43.78;33.10;;;23.70;99.90;;;;;;4896455;29;20486;-78
2023/10/10 16:57:20;;;;;;;56.10;33.15;;;23.60;99.90;;;;;;4930364;29;20036;-78
2023/10/10 16:59:50;;;;;;;48.05;32.03;;;23.60;99.90;;;;;;4915336;29;20032;-78
2023/10/10 17:02:16;;;;;;;45.42;31.52;;;23.50;99.90;;;;;;4923711;29;20103;-78
2023/10/10 17:04:48;;;;;;;49.92;33.83;;;23.40;99.90;;;;;;4934779;29;20044;-78
2023/10/10 17:07:26;;;;;;;43.47;31.75;;;23.40;99.90;;;;;;4917470;29;20040;-79
2023/10/10 17:09:53;;;;;;;42.67;30.42;;;23.30;99.90;;;;;;4916303;29;20035;-78
2023/10/10 17:12:19;;;;;;;42.83;29.63;;;23.30;99.90;;;;;;4916411;29;20028;-79
2023/10/10 17:14:47;;;;;;;35.50;29.67;;;23.20;99.90;;;;;;4916398;29;20120;-78
2023/10/10 17:17:15;;;;;;;39.63;29.45;;;23.10;99.90;;;;;;4915032;29;20032;-78
2023/10/10 17:19:41;;;;;;;36.65;29.70;;;23.00;99.90;;;;;;4916499;29;20036;-78
2023/10/10 17:22:23;;;;;;;33.92;29.13;;;23.00;99.90;;;;;;4916696;29;20028;-79
2023/10/10 17:25:01;;;;;;;35.95;28.98;;;23.00;99.90;;;;;;4930849;29;20032;-81
2023/10/10 17:27:37;;;;;;;31.10;28.17;;;22.90;99.90;;;;;;4916542;29;20036;-78
2023/10/10 17:30:21;;;;;;;32.17;28.92;;;22.90;99.90;;;;;;4917969;29;20477;-79
2023/10/10 17:33:08;;;;;;;31.08;28.10;;;22.80;99.90;;;;;;4933546;29;20087;-78
2023/10/10 17:35:49;;;;;;;31.63;28.70;;;22.80;99.90;;;;;;4920174;29;20024;-78
2023/10/10 17:38:23;;;;;;;35.65;27.73;;;22.80;99.90;;;;;;4919906;29;20040;-78
2023/10/10 17:41:09;;;;;;;30.92;27.67;;;22.80;99.90;;;;;;4918356;29;20036;-78
2023/10/10 17:43:43;;;;;;;30.45;27.38;;;22.80;99.90;;;;;;4918154;29;20043;-78
2023/10/10 17:46:14;;;;;;;32.55;27.58;;;22.80;99.90;;;;;;4919264;29;20071;-78
2023/10/10 17:48:42;;;;;;;30.48;27.40;;;22.80;99.90;;;;;;4919560;29;20025;-77
2023/10/10 17:51:15;;;;;;;30.27;26.90;;;22.70;99.90;;;;;;4934099;29;20134;-78
2023/10/10 17:53:57;;;;;;;31.00;27.02;;;22.80;99.90;;;;;;4919366;29;20437;-78
2023/10/10 17:56:38;;;;;;;30.35;27.25;;;22.70;99.90;;;;;;4919477;29;20032;-78
2023/10/10 17:59:11;;;;;;;30.65;27.75;;;22.70;99.90;;;;;;4919413;29;20028;-78
2023/10/10 18:01:38;;;;;;;29.27;25.98;;;22.60;99.90;;;;;;4919330;29;20021;-78
2023/10/10 18:04:10;;;;;;;29.60;26.48;;;22.60;99.90;;;;;;4918503;29;20060;-78
2023/10/10 18:06:44;;;;;;;28.85;26.23;;;22.60;99.90;;;;;;4933700;29;20077;-78
2023/10/10 18:09:16;;;;;;;30.33;25.88;;;22.50;99.90;;;;;;4919186;29;20032;-78
2023/10/10 18:11:53;;;;;;;29.05;25.90;;;22.40;99.90;;;;;;4919221;29;20111;-78
2023/10/10 18:14:27;;;;;;;28.85;25.88;;;22.40;99.90;;;;;;4917921;29;20044;-78
2023/10/10 18:17:10;;;;;;;33.85;27.02;;;22.30;99.90;;;;;;4917697;29;20060;-78
2023/10/10 18:19:40;;;;;;;32.88;26.90;;;22.10;99.90;;;;;;4932495;29;20401;-78
2023/10/10 18:22:18;;;;;;;29.10;26.10;;;22.10;99.90;;;;;;4917779;29;20063;-78
2023/10/10 18:24:59;;;;;;;31.15;26.70;;;22.00;99.90;;;;;;4917651;29;20028;-78
2023/10/10 18:27:32;;;;;;;32.30;25.83;;;22.00;99.90;;;;;;4918773;29;20023;-78
2023/10/10 18:29:59;;;;;;;40.35;25.88;;;21.90;99.90;;;;;;4933386;29;20039;-78
2023/10/10 18:32:30;;;;;;;31.02;24.98;;;21.80;99.90;;;;;;4918680;29;20502;-78
2023/10/10 18:35:06;;;;;;;28.15;25.38;;;21.70;99.90;;;;;;4918786;29;20402;-78
2023/10/10 18:37:41;;;;;;;29.92;24.50;;;21.60;99.90;;;;;;4918791;29;20028;-78
2023/10/10 18:40:18;;;;;;;25.73;22.90;;;21.60;99.90;;;;;;4918299;29;20035;-78
2023/10/10 18:42:47;;;;;;;28.08;22.30;;;21.50;99.90;;;;;;4918637;29;20052;-78
2023/10/10 18:45:31;;;;;;;21.60;19.30;;;21.50;99.90;;;;;;4918322;29;20032;-78
2023/10/10 18:48:03;;;;;;;28.63;17.83;;;21.50;99.90;;;;;;4918541;29;20036;-78
2023/10/10 18:50:36;;;;;;;21.35;16.40;;;21.50;99.90;;;;;;4918504;29;20095;-78
2023/10/10 18:53:09;;;;;;;25.67;16.00;;;21.40;99.90;;;;;;4918449;29;20032;-80
2023/10/10 18:55:37;;;;;;;28.00;15.57;;;21.50;99.90;;;;;;4918471;29;20040;-77
2023/10/10 18:58:05;;;;;;;17.90;13.55;;;21.40;99.90;;;;;;4918377;29;20028;-77
2023/10/10 19:00:34;;;;;;;17.90;13.68;;;21.40;99.90;;;;;;4916922;29;20397;-77
2023/10/10 19:03:00;;;;;;;19.60;11.68;;;21.30;99.90;;;;;;4918318;29;20028;-78
2023/10/10 19:05:39;;;;;;;20.30;12.15;;;21.30;99.90;;;;;;4916575;29;20048;-78
2023/10/10 19:08:08;;;;;;;17.30;11.32;;;21.30;99.90;;;;;;4918159;29;20028;-83
2023/10/10 19:10:37;;;;;;;19.70;11.85;;;21.20;99.90;;;;;;4940995;29;20031;-78
2023/10/10 19:13:06;;;;;;;20.15;11.35;;;21.20;99.90;;;;;;4936800;29;20035;-79
2023/10/10 19:15:37;;;;;;;23.13;11.55;;;21.20;99.90;;;;;;4934364;29;20070;-78
2023/10/10 19:18:04;;;;;;;16.95;10.63;;;21.20;99.90;;;;;;4917975;29;20115;-81
2023/10/10 19:20:36;;;;;;;25.27;11.75;;;21.10;99.90;;;;;;4916799;29;20072;-79
2023/10/10 19:23:08;;;;;;;23.27;11.23;;;21.10;99.90;;;;;;4917943;29;20032;-79
2023/10/10 19:25:45;;;;;;;19.15;10.80;;;21.00;99.90;;;;;;4917703;29;20043;-77
2023/10/10 19:28:17;;;;;;;16.80;10.18;;;21.00;99.90;;;;;;4917809;29;20030;-77
2023/10/10 19:30:45;;;;;;;21.48;11.95;;;20.90;99.90;;;;;;4916753;29;20118;-77
2023/10/10 19:33:14;;;;;;;27.70;10.77;;;20.90;99.90;;;;;;4917657;29;20023;-77
2023/10/10 19:35:44;;;;;;;18.48;10.07;;;20.90;99.90;;;;;;4917821;29;20028;-80
2023/10/10 19:38:11;;;;;;;16.20;10.20;;;20.90;99.90;;;;;;4916769;29;20040;-77
2023/10/10 19:40:43;;;;;;;16.90;9.95;;;20.90;99.90;;;;;;4917647;29;20076;-77
2023/10/10 19:43:19;;;;;;;20.85;10.65;;;20.90;99.90;;;;;;4917524;29;20489;-76
2023/10/10 19:45:48;;;;;;;23.48;9.93;;;20.90;99.90;;;;;;4917461;29;20044;-77
2023/10/10 19:48:16;;;;;;;17.30;9.93;;;20.80;99.90;;;;;;4916183;29;20385;-77
2023/10/10 19:50:49;;;;;;;18.60;9.82;;;20.80;99.90;;;;;;4916334;29;20047;-77
2023/10/10 19:53:16;;;;;;;13.52;9.07;;;20.80;99.90;;;;;;4916669;29;20079;-77
2023/10/10 19:55:48;;;;;;;24.88;10.20;;;20.80;99.90;;;;;;4917216;29;20512;-77
2023/10/10 19:58:15;;;;;;;20.05;10.13;;;20.80;99.90;;;;;;4916137;29;20059;-77
2023/10/10 20:00:49;;;;;;;15.10;8.82;;;20.80;99.90;;;;;;4917336;29;20035;-78
2023/10/10 20:03:27;;;;;;;22.08;10.40;;;20.70;99.90;;;;;;4916062;29;20446;-78
2023/10/10 20:05:55;;;;;;;18.23;10.05;;;20.70;99.90;;;;;;4917308;29;20046;-78
2023/10/10 20:08:46;;;;;;;23.90;10.20;;;20.70;99.90;;;;;;4919187;29;20025;-78
2023/10/10 20:11:16;;;;;;;18.98;10.60;;;20.80;99.90;;;;;;4900756;29;20032;-77
2023/10/10 20:13:54;;;;;;;19.13;10.57;;;20.80;99.90;;;;;;4917061;29;20111;-77
2023/10/10 20:16:25;;;;;;;16.13;9.50;;;20.80;99.90;;;;;;4912770;29;20028;-77
2023/10/10 20:18:53;;;;;;;17.00;9.98;;;20.80;99.90;;;;;;4912720;29;20398;-77
2023/10/10 20:21:24;;;;;;;18.15;10.02;;;20.80;99.90;;;;;;4896868;29;20083;-81
2023/10/10 20:23:53;;;;;;;22.52;10.73;;;20.70;99.90;;;;;;4913382;29;20033;-78
2023/10/10 20:26:19;;;;;;;24.08;10.27;;;20.80;99.90;;;;;;4915692;29;20169;-78
2023/10/10 20:28:47;;;;;;;17.75;10.23;;;20.80;99.90;;;;;;4916946;29;20447;-78
2023/10/10 20:31:14;;;;;;;20.65;10.95;;;20.80;99.90;;;;;;4916097;29;20032;-78